Time;durP1;ratioP1;P1;durP2;ratioP2;P2;SDS_P1;SDS_P2;PMS_P1;PMS_P2;Temp;Humidity;BMP_temperature;BMP_pressure;BME280_temperature;BME280_humidity;BME280_pressure;Samples;Min_cycle;Max_cycle;Signal;HPM_P1;HPM_P2
2022/10/08 00:01:11;;;;;;;7.75;1.85;;;14.50;72.70;;;;;;5113833;28;20044;-73
2022/10/08 00:03:39;;;;;;;5.40;1.45;;;14.60;72.70;;;;;;5095904;28;20026;-73
2022/10/08 00:06:06;;;;;;;4.50;1.80;;;14.50;72.70;;;;;;5113779;28;20028;-73
2022/10/08 00:08:36;;;;;;;5.28;1.92;;;14.50;72.90;;;;;;5095676;28;20031;-73
2022/10/08 00:11:05;;;;;;;3.85;1.73;;;14.50;73.00;;;;;;5113675;28;20020;-73
2022/10/08 00:13:41;;;;;;;5.97;1.58;;;14.50;72.90;;;;;;5113658;28;20042;-73
2022/10/08 00:16:09;;;;;;;3.03;1.35;;;14.50;73.70;;;;;;5113827;28;20020;-73
2022/10/08 00:18:35;;;;;;;6.13;2.00;;;14.50;72.80;;;;;;5113624;28;20028;-73
2022/10/08 00:21:31;;;;;;;6.35;2.47;;;14.50;72.70;;;;;;5095695;28;20091;-73
2022/10/08 00:23:58;;;;;;;7.15;1.90;;;14.50;73.10;;;;;;5100965;28;20032;-73
2022/10/08 00:26:25;;;;;;;6.18;1.95;;;14.50;73.10;;;;;;5113548;28;20046;-73
2022/10/08 00:28:54;;;;;;;4.43;1.70;;;14.50;73.10;;;;;;5113445;28;20024;-73
2022/10/08 00:31:25;;;;;;;7.75;1.85;;;14.50;73.10;;;;;;5113481;28;20020;-73
2022/10/08 00:33:53;;;;;;;5.72;1.77;;;14.50;73.30;;;;;;5113530;28;20049;-73
2022/10/08 00:36:20;;;;;;;5.75;2.03;;;14.50;73.30;;;;;;5113435;28;20024;-73
2022/10/08 00:38:46;;;;;;;7.60;2.00;;;14.50;73.10;;;;;;5095811;28;20028;-73
2022/10/08 00:41:21;;;;;;;6.10;1.95;;;14.50;73.50;;;;;;5113412;28;20037;-73
2022/10/08 00:43:54;;;;;;;5.85;1.90;;;14.50;73.40;;;;;;5113429;28;20096;-73
2022/10/08 00:46:41;;;;;;;7.28;1.83;;;14.60;73.80;;;;;;5113337;28;20087;-73
2022/10/08 00:49:20;;;;;;;5.90;1.95;;;14.60;73.60;;;;;;5113285;28;20024;-73
2022/10/08 00:51:52;;;;;;;8.10;1.88;;;14.60;73.40;;;;;;5113117;28;20071;-73
2022/10/08 00:54:20;;;;;;;5.32;2.38;;;14.60;73.40;;;;;;5117383;28;20032;-73
2022/10/08 00:56:52;;;;;;;8.85;2.10;;;14.70;73.10;;;;;;5117289;28;20024;-73
2022/10/08 00:59:19;;;;;;;7.60;2.20;;;14.70;73.10;;;;;;5117437;28;20024;-73
2022/10/08 01:01:45;;;;;;;8.25;2.08;;;14.70;72.80;;;;;;5117355;28;20020;-74
2022/10/08 01:04:12;;;;;;;7.38;1.70;;;14.70;73.10;;;;;;5117167;28;20395;-73
2022/10/08 01:06:47;;;;;;;5.00;1.77;;;14.70;73.20;;;;;;5117129;28;20073;-74
2022/10/08 01:09:20;;;;;;;7.57;2.17;;;14.70;73.20;;;;;;5099041;28;20024;-74
2022/10/08 01:12:06;;;;;;;8.10;2.17;;;14.80;73.00;;;;;;5117061;28;20061;-73
2022/10/08 01:14:46;;;;;;;7.35;1.83;;;14.80;73.10;;;;;;5116991;28;20016;-73
2022/10/08 01:17:30;;;;;;;5.88;2.15;;;14.80;73.20;;;;;;5116938;28;20367;-74
2022/10/08 01:20:15;;;;;;;4.90;2.17;;;14.70;73.30;;;;;;5116889;28;20050;-73
2022/10/08 01:23:12;;;;;;;6.53;1.90;;;14.80;73.20;;;;;;5116861;28;20020;-73
2022/10/08 01:26:22;;;;;;;6.22;2.03;;;14.80;73.90;;;;;;5116787;28;20034;-73
2022/10/08 01:29:00;;;;;;;5.70;1.77;;;14.70;74.40;;;;;;5068633;28;20043;-74
2022/10/08 01:31:31;;;;;;;6.55;1.90;;;14.80;75.30;;;;;;5116833;28;20370;-73
2022/10/08 01:33:57;;;;;;;4.45;1.80;;;14.70;75.90;;;;;;5116790;28;20463;-73
2022/10/08 01:36:26;;;;;;;4.57;1.90;;;14.70;76.30;;;;;;5116547;28;20020;-73
2022/10/08 01:38:59;;;;;;;8.43;2.13;;;14.70;76.80;;;;;;5116480;28;20016;-74
2022/10/08 01:41:28;;;;;;;7.95;1.83;;;14.70;77.20;;;;;;5116559;28;20016;-74
2022/10/08 01:44:01;;;;;;;6.78;2.13;;;14.60;77.00;;;;;;5116398;28;20020;-73
2022/10/08 01:46:29;;;;;;;7.03;2.80;;;14.60;77.50;;;;;;5116395;28;20012;-73
2022/10/08 01:49:03;;;;;;;7.95;2.88;;;14.60;77.40;;;;;;5116227;28;20020;-73
2022/10/08 01:51:37;;;;;;;6.68;2.97;;;14.60;77.70;;;;;;5116128;28;20071;-74
2022/10/08 01:54:07;;;;;;;6.80;2.47;;;14.60;78.10;;;;;;5116238;28;20028;-74
2022/10/08 01:56:36;;;;;;;9.07;3.30;;;14.50;78.80;;;;;;5116165;28;20042;-73
2022/10/08 01:59:25;;;;;;;15.32;4.10;;;14.50;78.20;;;;;;5116116;28;20020;-74
2022/10/08 02:02:09;;;;;;;7.05;3.30;;;14.50;78.80;;;;;;5116223;28;20027;-73
2022/10/08 02:04:38;;;;;;;7.90;3.28;;;14.50;79.10;;;;;;5115038;28;20084;-74
2022/10/08 02:07:15;;;;;;;7.57;3.58;;;14.40;79.60;;;;;;5116100;28;20047;-73
2022/10/08 02:09:50;;;;;;;8.07;3.50;;;14.40;80.30;;;;;;5115849;28;20035;-74
2022/10/08 02:12:16;;;;;;;11.98;3.38;;;14.40;79.60;;;;;;5115894;28;20017;-73
2022/10/08 02:14:46;;;;;;;7.82;3.10;;;14.40;80.10;;;;;;5115794;28;20025;-74
2022/10/08 02:17:30;;;;;;;9.27;3.35;;;14.30;80.70;;;;;;5115790;28;20016;-73
2022/10/08 02:20:30;;;;;;;8.18;3.55;;;14.30;81.50;;;;;;5115713;28;20028;-74
2022/10/08 02:23:02;;;;;;;8.77;3.42;;;14.30;81.30;;;;;;5115702;28;20020;-74
2022/10/08 02:25:37;;;;;;;6.15;2.90;;;14.20;81.30;;;;;;5115659;28;20106;-74
2022/10/08 02:28:21;;;;;;;12.20;3.60;;;14.20;81.80;;;;;;5115706;28;20028;-74
2022/10/08 02:30:57;;;;;;;6.35;3.20;;;14.20;81.80;;;;;;5115557;28;20064;-74
2022/10/08 02:33:34;;;;;;;7.00;3.28;;;14.10;82.50;;;;;;5115484;28;20023;-75
2022/10/08 02:36:05;;;;;;;11.02;4.05;;;14.10;82.20;;;;;;5115419;28;20084;-74
2022/10/08 02:38:42;;;;;;;8.52;3.53;;;14.10;82.40;;;;;;5115379;28;20016;-74
2022/10/08 02:41:10;;;;;;;10.95;3.67;;;14.10;82.60;;;;;;5115317;28;20028;-74
2022/10/08 02:43:39;;;;;;;9.88;3.78;;;14.10;82.90;;;;;;5097303;28;20017;-75
2022/10/08 02:46:15;;;;;;;7.72;3.50;;;14.10;83.40;;;;;;5115190;28;20075;-74
2022/10/08 02:48:55;;;;;;;9.07;4.15;;;14.00;83.10;;;;;;5115086;28;20044;-74
2022/10/08 02:51:21;;;;;;;8.73;4.05;;;14.10;83.10;;;;;;5115039;28;20048;-74
2022/10/08 02:53:48;;;;;;;7.43;3.55;;;14.10;83.20;;;;;;5115060;28;20024;-74
2022/10/08 02:56:26;;;;;;;8.30;3.65;;;14.00;83.70;;;;;;5115012;28;20025;-74
2022/10/08 02:58:52;;;;;;;4.68;3.28;;;14.00;83.40;;;;;;5114992;28;20020;-74
2022/10/08 03:01:38;;;;;;;7.88;3.65;;;14.00;83.50;;;;;;5114890;28;20034;-74
2022/10/08 03:04:18;;;;;;;7.10;3.33;;;14.00;83.80;;;;;;5096931;28;20048;-74
2022/10/08 03:06:45;;;;;;;12.52;3.33;;;14.00;83.50;;;;;;5114986;28;20035;-74
2022/10/08 03:09:13;;;;;;;6.32;2.70;;;14.00;84.00;;;;;;5114688;28;20028;-75
2022/10/08 03:11:39;;;;;;;6.13;2.78;;;14.00;84.20;;;;;;5114688;28;20489;-74
2022/10/08 03:14:09;;;;;;;6.18;3.05;;;14.00;85.10;;;;;;5114668;28;20051;-74
2022/10/08 03:16:37;;;;;;;7.28;2.90;;;14.00;84.20;;;;;;5114539;28;20031;-74
2022/10/08 03:19:04;;;;;;;7.65;2.88;;;13.90;84.00;;;;;;5114535;28;20046;-74
2022/10/08 03:21:30;;;;;;;5.93;2.53;;;13.90;84.10;;;;;;5114535;28;20024;-74
2022/10/08 03:23:56;;;;;;;5.22;2.38;;;13.90;84.00;;;;;;5114461;28;20073;-74
2022/10/08 03:26:22;;;;;;;5.40;2.88;;;13.90;83.90;;;;;;5114445;28;20032;-74
2022/10/08 03:28:47;;;;;;;4.43;2.00;;;13.80;84.00;;;;;;5114233;28;20036;-74
2022/10/08 03:31:13;;;;;;;5.78;2.10;;;13.80;84.10;;;;;;5096398;28;20027;-74
2022/10/08 03:33:38;;;;;;;4.38;2.10;;;13.70;84.40;;;;;;5114296;28;20028;-74
2022/10/08 03:36:05;;;;;;;5.18;1.90;;;13.80;83.90;;;;;;5114259;28;20013;-74
2022/10/08 03:38:33;;;;;;;3.83;1.85;;;13.70;84.00;;;;;;5114206;28;20020;-74
2022/10/08 03:40:59;;;;;;;4.20;1.83;;;13.70;84.10;;;;;;5114166;28;20084;-74
2022/10/08 03:43:32;;;;;;;6.05;2.15;;;13.70;84.00;;;;;;5114123;28;20028;-74
2022/10/08 03:45:58;;;;;;;3.92;1.58;;;13.70;83.80;;;;;;5114144;28;20024;-74
2022/10/08 03:48:24;;;;;;;4.47;1.65;;;13.70;83.60;;;;;;5114087;28;20118;-74
2022/10/08 03:50:57;;;;;;;5.07;1.70;;;13.70;84.30;;;;;;5113863;28;20111;-74
2022/10/08 03:53:24;;;;;;;5.57;1.35;;;13.70;83.60;;;;;;5114168;28;20074;-74
2022/10/08 03:55:51;;;;;;;6.13;1.60;;;13.70;83.30;;;;;;5113942;28;20093;-74
2022/10/08 03:58:17;;;;;;;3.03;1.30;;;13.70;83.40;;;;;;5113899;28;20020;-74
2022/10/08 04:00:43;;;;;;;3.38;1.42;;;13.60;83.60;;;;;;5113836;28;20017;-74
2022/10/08 04:03:09;;;;;;;8.70;1.67;;;13.60;83.90;;;;;;5113810;28;20016;-74
2022/10/08 04:05:34;;;;;;;3.22;1.30;;;13.50;84.00;;;;;;5113785;28;20031;-74
2022/10/08 04:08:00;;;;;;;4.43;1.40;;;13.50;83.70;;;;;;5095890;28;20475;-74
2022/10/08 04:10:25;;;;;;;7.30;1.38;;;13.50;83.80;;;;;;5113672;28;20027;-73
2022/10/08 04:12:51;;;;;;;4.90;1.35;;;13.50;83.50;;;;;;5095826;28;20032;-74
2022/10/08 04:15:17;;;;;;;4.22;1.55;;;13.50;83.70;;;;;;5113685;28;20036;-74
2022/10/08 04:17:42;;;;;;;4.13;1.45;;;13.50;83.60;;;;;;5095912;28;20532;-74
2022/10/08 04:20:08;;;;;;;3.63;1.58;;;13.40;83.60;;;;;;5113619;28;20032;-74
2022/10/08 04:22:34;;;;;;;5.10;1.65;;;13.40;83.50;;;;;;5113580;28;20052;-74
2022/10/08 04:25:00;;;;;;;6.53;1.60;;;13.40;83.50;;;;;;5113595;28;20032;-74
2022/10/08 04:27:26;;;;;;;3.33;1.33;;;13.30;83.60;;;;;;5112976;28;20043;-74
2022/10/08 04:29:51;;;;;;;3.20;1.30;;;13.30;83.90;;;;;;5113371;28;20054;-74
2022/10/08 04:32:17;;;;;;;7.88;1.70;;;13.20;84.10;;;;;;5113477;28;20039;-74
2022/10/08 04:34:42;;;;;;;6.28;1.70;;;13.20;84.80;;;;;;5113458;28;20024;-74
2022/10/08 04:37:08;;;;;;;4.03;1.60;;;13.20;84.40;;;;;;5095603;28;20066;-74
2022/10/08 04:39:34;;;;;;;3.72;1.52;;;13.20;84.30;;;;;;5113427;28;20037;-74
2022/10/08 04:42:00;;;;;;;7.32;1.90;;;13.20;84.10;;;;;;5113395;28;20054;-74
2022/10/08 04:44:25;;;;;;;4.80;1.65;;;13.20;84.10;;;;;;5113372;28;20024;-74
2022/10/08 04:46:51;;;;;;;6.18;1.80;;;13.20;83.80;;;;;;5113348;28;20028;-74
2022/10/08 04:49:18;;;;;;;3.85;1.67;;;13.20;83.90;;;;;;5113282;28;20029;-74
2022/10/08 04:51:44;;;;;;;8.57;2.10;;;13.20;84.10;;;;;;5095484;28;20047;-74
2022/10/08 04:54:09;;;;;;;5.22;2.45;;;13.20;84.40;;;;;;5113284;28;20017;-73
2022/10/08 04:56:35;;;;;;;6.63;2.20;;;13.20;84.80;;;;;;5113426;28;20375;-74
2022/10/08 04:59:01;;;;;;;5.25;2.10;;;13.10;85.30;;;;;;5113245;28;20035;-74
2022/10/08 05:01:28;;;;;;;5.18;2.20;;;13.10;85.80;;;;;;5095483;28;20032;-74
2022/10/08 05:03:55;;;;;;;5.60;2.90;;;13.20;85.70;;;;;;5113229;28;20024;-74
2022/10/08 05:06:23;;;;;;;9.93;3.72;;;13.10;86.70;;;;;;5113162;28;20020;-74
2022/10/08 05:08:49;;;;;;;8.88;4.10;;;13.10;87.10;;;;;;5113058;28;20039;-74
2022/10/08 05:11:16;;;;;;;10.63;5.22;;;13.10;88.20;;;;;;5113131;28;20020;-74
2022/10/08 05:13:42;;;;;;;12.23;5.35;;;13.10;88.10;;;;;;5113110;28;20586;-74
2022/10/08 05:16:10;;;;;;;12.75;5.30;;;13.10;88.20;;;;;;5113126;28;20078;-74
2022/10/08 05:18:37;;;;;;;12.82;5.00;;;13.10;87.90;;;;;;5113075;28;20055;-74
2022/10/08 05:21:08;;;;;;;14.55;6.20;;;13.10;88.50;;;;;;5113031;28;20024;-74
2022/10/08 05:23:34;;;;;;;15.63;6.05;;;13.10;88.30;;;;;;5113064;28;20032;-74
2022/10/08 05:26:01;;;;;;;15.52;6.40;;;13.10;88.40;;;;;;5113011;28;20028;-74
2022/10/08 05:28:27;;;;;;;14.95;6.25;;;13.20;88.40;;;;;;5112829;28;20022;-74
2022/10/08 05:30:59;;;;;;;14.23;6.63;;;13.20;88.10;;;;;;5112977;28;20055;-73
2022/10/08 05:33:24;;;;;;;17.35;7.95;;;13.20;88.80;;;;;;5112985;28;20052;-74
2022/10/08 05:35:50;;;;;;;14.40;6.93;;;13.20;88.80;;;;;;5112908;28;20074;-74
2022/10/08 05:38:15;;;;;;;15.52;7.13;;;13.20;88.70;;;;;;5113044;28;20114;-74
2022/10/08 05:40:41;;;;;;;17.00;7.72;;;13.20;89.20;;;;;;5115665;28;20032;-74
2022/10/08 05:43:07;;;;;;;20.27;8.13;;;13.10;89.60;;;;;;5116444;28;20028;-73
2022/10/08 05:45:32;;;;;;;17.08;8.02;;;13.20;89.10;;;;;;5116398;28;20027;-74
2022/10/08 05:47:58;;;;;;;19.10;8.77;;;13.20;88.80;;;;;;5116251;28;20051;-74
2022/10/08 05:50:23;;;;;;;18.13;8.38;;;13.20;88.90;;;;;;5116243;28;20051;-74
2022/10/08 05:52:49;;;;;;;19.52;8.35;;;13.20;88.80;;;;;;5098154;28;20063;-75
2022/10/08 05:55:14;;;;;;;20.27;8.23;;;13.20;89.10;;;;;;5116196;28;20031;-74
2022/10/08 05:57:40;;;;;;;23.60;9.27;;;13.20;89.10;;;;;;5116152;28;20054;-74
2022/10/08 06:00:06;;;;;;;21.35;8.30;;;13.20;89.40;;;;;;5116123;28;20036;-74
2022/10/08 06:02:32;;;;;;;19.25;8.77;;;13.20;89.70;;;;;;5116070;28;20028;-74
2022/10/08 06:04:57;;;;;;;23.20;8.88;;;13.20;89.60;;;;;;5116024;28;20051;-74
2022/10/08 06:07:23;;;;;;;22.33;9.48;;;13.20;89.50;;;;;;5115961;28;20033;-75
2022/10/08 06:09:51;;;;;;;25.85;9.50;;;13.20;90.00;;;;;;5115834;28;20039;-74
2022/10/08 06:12:16;;;;;;;23.15;8.85;;;13.10;89.70;;;;;;5115880;28;20028;-74
2022/10/08 06:14:42;;;;;;;24.20;9.40;;;13.20;89.50;;;;;;5115832;28;20016;-74
2022/10/08 06:17:07;;;;;;;25.60;9.73;;;13.20;89.30;;;;;;5115792;28;20027;-73
2022/10/08 06:19:36;;;;;;;21.77;9.18;;;13.30;89.00;;;;;;5115739;28;20100;-75
2022/10/08 06:22:03;;;;;;;23.67;10.48;;;13.30;89.00;;;;;;5115719;28;20080;-74
2022/10/08 06:24:29;;;;;;;24.98;9.93;;;13.30;88.80;;;;;;5115650;28;20055;-73
2022/10/08 06:26:55;;;;;;;28.65;11.30;;;13.30;89.00;;;;;;5115571;28;20368;-73
2022/10/08 06:29:21;;;;;;;24.80;10.48;;;13.40;89.60;;;;;;5097642;28;20088;-74
2022/10/08 06:31:47;;;;;;;27.60;10.80;;;13.30;89.10;;;;;;5115611;28;20020;-74
2022/10/08 06:34:13;;;;;;;32.75;11.95;;;13.30;89.00;;;;;;5115444;28;20035;-73
2022/10/08 06:36:39;;;;;;;28.90;12.48;;;13.30;88.90;;;;;;5115396;28;20027;-73
2022/10/08 06:39:08;;;;;;;27.92;11.45;;;13.20;89.00;;;;;;5097661;28;20058;-73
2022/10/08 06:41:34;;;;;;;30.73;11.68;;;13.30;88.60;;;;;;5115477;28;20024;-73
2022/10/08 06:44:02;;;;;;;28.42;11.60;;;13.30;88.50;;;;;;5115264;28;20506;-73
2022/10/08 06:46:30;;;;;;;32.25;12.95;;;13.30;88.40;;;;;;5115186;28;20024;-74
2022/10/08 06:48:57;;;;;;;32.63;12.05;;;13.20;88.80;;;;;;5097144;28;20027;-74
2022/10/08 06:51:22;;;;;;;34.25;12.35;;;13.20;88.90;;;;;;5114419;28;20032;-74
2022/10/08 06:53:54;;;;;;;29.70;12.32;;;13.20;88.90;;;;;;5115089;28;20109;-73
2022/10/08 06:56:20;;;;;;;31.77;13.20;;;13.30;88.90;;;;;;5115013;28;20020;-73
2022/10/08 06:58:46;;;;;;;34.55;13.75;;;13.30;88.80;;;;;;5114968;28;20052;-74
2022/10/08 07:01:21;;;;;;;36.03;13.95;;;13.30;88.70;;;;;;5114823;28;20024;-73
2022/10/08 07:03:56;;;;;;;31.60;13.85;;;13.30;88.60;;;;;;5114712;28;20065;-73
2022/10/08 07:06:22;;;;;;;36.42;14.00;;;13.30;88.80;;;;;;5114875;28;20116;-74
2022/10/08 07:08:57;;;;;;;34.20;13.20;;;13.40;89.00;;;;;;5114684;28;20028;-74
2022/10/08 07:11:24;;;;;;;33.55;13.10;;;13.40;89.10;;;;;;5114736;28;20020;-74
2022/10/08 07:13:50;;;;;;;34.67;13.82;;;13.40;89.40;;;;;;5114656;28;20049;-73
2022/10/08 07:16:17;;;;;;;33.75;14.25;;;13.40;89.20;;;;;;5114644;28;20028;-73
2022/10/08 07:18:43;;;;;;;36.20;13.65;;;13.40;89.20;;;;;;5114582;28;20028;-73
2022/10/08 07:21:11;;;;;;;34.10;14.40;;;13.40;89.40;;;;;;5114548;28;20032;-74
2022/10/08 07:23:37;;;;;;;29.55;13.15;;;13.50;89.00;;;;;;5114493;28;20146;-74
2022/10/08 07:26:13;;;;;;;34.60;13.60;;;13.60;89.10;;;;;;5114490;28;20028;-74
2022/10/08 07:28:42;;;;;;;30.73;12.40;;;13.60;89.00;;;;;;5114242;28;20026;-74
2022/10/08 07:31:21;;;;;;;28.27;12.45;;;13.60;88.70;;;;;;5114311;28;20077;-74
2022/10/08 07:33:47;;;;;;;35.50;13.23;;;13.60;88.60;;;;;;5114376;28;20030;-74
2022/10/08 07:36:15;;;;;;;30.98;12.85;;;13.70;89.40;;;;;;5114255;28;20024;-73
2022/10/08 07:38:41;;;;;;;30.85;12.35;;;13.70;88.50;;;;;;5114211;28;20024;-73
2022/10/08 07:41:08;;;;;;;28.77;11.88;;;13.80;88.40;;;;;;5114212;28;20094;-73
2022/10/08 07:43:34;;;;;;;26.88;11.18;;;13.80;89.00;;;;;;5114162;28;20065;-74
2022/10/08 07:46:00;;;;;;;29.88;11.80;;;13.90;87.90;;;;;;5114064;28;20049;-73
2022/10/08 07:48:29;;;;;;;29.77;11.48;;;13.80;87.50;;;;;;5114008;28;20079;-74
2022/10/08 07:50:55;;;;;;;28.17;11.60;;;13.80;87.50;;;;;;5113857;28;20031;-73
2022/10/08 07:53:20;;;;;;;29.55;11.77;;;13.90;88.20;;;;;;5113935;28;20020;-73
2022/10/08 07:55:46;;;;;;;30.48;11.85;;;13.90;87.20;;;;;;5113948;28;20032;-73
2022/10/08 07:58:12;;;;;;;28.50;11.75;;;14.00;87.10;;;;;;5113898;28;20048;-74
2022/10/08 08:00:39;;;;;;;31.83;11.15;;;14.00;87.00;;;;;;5113857;28;20055;-74
2022/10/08 08:03:04;;;;;;;26.80;11.73;;;14.00;87.50;;;;;;5113018;28;20028;-73
2022/10/08 08:05:34;;;;;;;28.23;10.80;;;14.10;87.00;;;;;;5113851;28;20061;-74
2022/10/08 08:07:59;;;;;;;22.00;8.93;;;14.20;86.50;;;;;;5113770;28;20028;-75
2022/10/08 08:10:25;;;;;;;23.52;9.00;;;14.30;86.90;;;;;;5095861;28;20059;-74
2022/10/08 08:12:50;;;;;;;23.80;9.93;;;14.30;85.80;;;;;;5095896;28;20027;-74
2022/10/08 08:15:16;;;;;;;20.27;8.30;;;14.40;85.50;;;;;;5113726;28;20035;-75
2022/10/08 08:17:42;;;;;;;14.40;5.78;;;14.50;84.80;;;;;;5113635;28;20027;-74
2022/10/08 08:20:08;;;;;;;13.15;5.32;;;14.50;82.20;;;;;;5113627;28;20032;-74
2022/10/08 08:22:33;;;;;;;13.88;5.07;;;14.60;82.20;;;;;;5095675;28;20024;-73
2022/10/08 08:24:59;;;;;;;12.90;4.78;;;14.70;82.50;;;;;;5095765;28;20032;-74
2022/10/08 08:27:25;;;;;;;9.45;3.97;;;14.70;80.30;;;;;;5113549;28;20031;-74
2022/10/08 08:29:50;;;;;;;14.20;4.63;;;14.70;81.20;;;;;;5113419;28;20471;-74
2022/10/08 08:32:16;;;;;;;11.02;4.05;;;14.90;80.70;;;;;;5113494;28;20050;-73
2022/10/08 08:34:41;;;;;;;10.57;3.28;;;15.00;80.80;;;;;;5113632;28;20035;-74
2022/10/08 08:37:07;;;;;;;6.85;2.75;;;15.10;80.30;;;;;;5113485;28;20032;-74
2022/10/08 08:39:33;;;;;;;7.97;2.75;;;15.10;79.30;;;;;;5113566;28;20032;-75
2022/10/08 08:42:17;;;;;;;4.97;2.10;;;15.20;79.00;;;;;;5113439;28;20036;-75
2022/10/08 08:45:20;;;;;;;9.35;2.15;;;15.30;76.30;;;;;;5113377;28;20039;-74
2022/10/08 08:48:06;;;;;;;5.53;1.83;;;15.30;74.80;;;;;;5110159;28;20055;-74
2022/10/08 08:50:36;;;;;;;5.82;1.52;;;15.40;75.80;;;;;;5113248;28;20074;-74
2022/10/08 08:53:03;;;;;;;4.90;1.40;;;15.40;75.50;;;;;;5113178;28;20039;-74
2022/10/08 08:55:41;;;;;;;5.75;1.58;;;15.50;74.90;;;;;;5113296;28;20053;-74
2022/10/08 08:58:33;;;;;;;5.95;1.60;;;15.60;73.30;;;;;;5113298;28;20023;-74
2022/10/08 09:01:19;;;;;;;6.35;1.27;;;15.60;73.00;;;;;;5113322;28;20021;-74
2022/10/08 09:03:48;;;;;;;5.20;1.40;;;15.70;73.50;;;;;;5113406;28;20042;-74
2022/10/08 09:06:16;;;;;;;2.92;1.20;;;15.80;74.10;;;;;;5113339;28;20023;-74
2022/10/08 09:09:10;;;;;;;6.75;1.50;;;16.00;73.80;;;;;;5113054;28;20035;-74
2022/10/08 09:11:38;;;;;;;2.30;1.00;;;16.10;72.00;;;;;;5113353;28;20024;-74
2022/10/08 09:14:25;;;;;;;3.95;0.93;;;16.10;71.60;;;;;;5115118;28;20024;-74
2022/10/08 09:16:52;;;;;;;5.32;1.23;;;16.30;70.80;;;;;;5117009;28;20035;-74
2022/10/08 09:19:17;;;;;;;4.50;0.82;;;16.40;71.20;;;;;;5116946;28;20020;-74
2022/10/08 09:21:43;;;;;;;5.78;1.52;;;16.30;68.30;;;;;;5099089;28;20451;-74
2022/10/08 09:24:10;;;;;;;2.38;0.75;;;16.20;68.30;;;;;;5116834;28;20051;-74
2022/10/08 09:26:36;;;;;;;3.42;1.00;;;16.20;68.20;;;;;;5116797;28;20034;-74
2022/10/08 09:29:03;;;;;;;4.18;1.00;;;16.10;67.60;;;;;;5116601;28;20032;-74
2022/10/08 09:31:38;;;;;;;4.43;0.85;;;16.00;67.50;;;;;;5098702;28;20122;-74
2022/10/08 09:34:14;;;;;;;6.43;0.68;;;15.90;68.00;;;;;;5116636;28;20049;-74
2022/10/08 09:36:49;;;;;;;1.25;0.50;;;15.90;68.00;;;;;;5098662;28;20024;-74
2022/10/08 09:39:16;;;;;;;5.22;1.40;;;15.80;67.50;;;;;;5116703;28;20032;-73
2022/10/08 09:41:44;;;;;;;3.47;0.65;;;15.90;67.60;;;;;;5116505;28;20471;-74
2022/10/08 09:44:16;;;;;;;3.17;0.80;;;15.90;66.80;;;;;;5116433;28;20024;-74
2022/10/08 09:46:43;;;;;;;2.90;0.70;;;16.00;66.40;;;;;;5116398;28;20032;-74
2022/10/08 09:49:26;;;;;;;1.48;0.70;;;16.10;67.40;;;;;;5116285;28;20031;-74
2022/10/08 09:51:53;;;;;;;3.20;1.10;;;16.30;67.40;;;;;;5116131;28;20044;-74
2022/10/08 09:54:25;;;;;;;3.92;0.60;;;16.50;66.10;;;;;;5116279;28;20170;-74
2022/10/08 09:56:57;;;;;;;4.72;0.60;;;16.60;66.20;;;;;;5116258;28;20028;-74
2022/10/08 09:59:27;;;;;;;5.43;0.75;;;16.70;64.10;;;;;;5116240;28;20439;-74
2022/10/08 10:01:53;;;;;;;1.40;0.60;;;16.70;64.70;;;;;;5116292;28;20016;-74
2022/10/08 10:04:39;;;;;;;2.88;0.85;;;16.60;63.60;;;;;;5116072;28;20058;-73
2022/10/08 10:07:05;;;;;;;4.90;0.80;;;16.50;63.60;;;;;;5116088;28;20066;-74
2022/10/08 10:10:00;;;;;;;4.35;0.80;;;16.40;64.60;;;;;;5116080;28;20054;-74
2022/10/08 10:12:31;;;;;;;4.32;0.80;;;16.30;63.70;;;;;;5116003;28;20031;-74
2022/10/08 10:15:01;;;;;;;6.88;0.88;;;16.40;64.60;;;;;;5116049;28;20072;-74
2022/10/08 10:17:44;;;;;;;3.13;0.90;;;16.50;64.30;;;;;;5115843;28;20020;-74
2022/10/08 10:20:34;;;;;;;3.95;0.88;;;16.70;63.50;;;;;;5115944;28;20477;-74
2022/10/08 10:23:27;;;;;;;4.38;0.90;;;16.90;63.60;;;;;;5115739;28;20051;-74
2022/10/08 10:26:18;;;;;;;2.10;0.68;;;17.10;64.30;;;;;;5114877;28;20028;-75
2022/10/08 10:28:47;;;;;;;3.03;1.17;;;17.20;59.90;;;;;;5108625;28;20096;-75
2022/10/08 10:31:22;;;;;;;5.65;1.00;;;17.20;62.70;;;;;;5115561;28;20075;-75
2022/10/08 10:33:58;;;;;;;4.53;0.90;;;17.40;62.30;;;;;;5115555;28;20020;-75
2022/10/08 10:36:30;;;;;;;6.68;0.93;;;17.60;62.80;;;;;;5115622;28;20024;-75
2022/10/08 10:39:11;;;;;;;4.65;0.93;;;17.80;62.20;;;;;;5115449;28;20087;-75
2022/10/08 10:41:43;;;;;;;2.08;0.60;;;17.80;60.80;;;;;;5115587;28;20020;-74
2022/10/08 10:44:18;;;;;;;4.70;0.80;;;17.80;59.40;;;;;;5115366;28;20035;-74
2022/10/08 10:46:50;;;;;;;2.97;0.90;;;17.80;59.00;;;;;;5115265;28;20054;-74
2022/10/08 10:49:17;;;;;;;;;;;17.90;59.50;;;;;;5115598;28;20020;-74
2022/10/08 10:51:52;;;;;;;3.25;0.63;;;17.90;58.10;;;;;;5114986;28;19912;-74
2022/10/08 10:54:41;;;;;;;3.17;0.70;;;17.90;58.20;;;;;;5115153;28;20027;-74
2022/10/08 10:57:42;;;;;;;2.75;0.80;;;18.00;57.00;;;;;;5115091;28;20039;-75
2022/10/08 11:00:23;;;;;;;4.63;0.90;;;18.00;56.50;;;;;;5091394;28;20039;-74
2022/10/08 11:03:04;;;;;;;3.42;0.80;;;18.00;58.40;;;;;;5114991;28;20024;-74
2022/10/08 11:05:33;;;;;;;4.90;0.85;;;18.10;58.60;;;;;;5115083;28;20050;-74
2022/10/08 11:08:04;;;;;;;3.05;0.80;;;18.20;58.40;;;;;;5114848;28;20024;-74
2022/10/08 11:10:53;;;;;;;3.15;1.05;;;18.30;58.60;;;;;;5114704;28;20032;-74
2022/10/08 11:13:31;;;;;;;4.20;0.70;;;18.30;57.90;;;;;;5106292;28;20055;-74
2022/10/08 11:16:07;;;;;;;5.93;0.80;;;18.20;57.00;;;;;;5114724;28;20024;-75
2022/10/08 11:18:57;;;;;;;5.57;0.80;;;18.00;57.20;;;;;;5114814;28;20019;-74
2022/10/08 11:21:32;;;;;;;2.05;0.73;;;18.00;57.70;;;;;;5114628;28;20555;-74
2022/10/08 11:24:07;;;;;;;4.38;1.10;;;17.80;58.00;;;;;;5114748;28;20044;-74
2022/10/08 11:27:01;;;;;;;3.40;0.73;;;17.70;57.80;;;;;;5114551;28;20019;-74
2022/10/08 11:29:38;;;;;;;3.50;1.15;;;17.60;59.00;;;;;;5114368;28;20039;-74
2022/10/08 11:32:10;;;;;;;3.97;1.17;;;17.50;58.70;;;;;;5114561;28;20028;-74
2022/10/08 11:34:36;;;;;;;1.98;0.70;;;17.40;58.90;;;;;;5114433;28;20088;-74
2022/10/08 11:37:30;;;;;;;1.65;0.68;;;17.30;58.00;;;;;;5096490;28;20024;-74
2022/10/08 11:40:27;;;;;;;4.32;0.93;;;17.30;57.50;;;;;;5114322;28;20020;-74
2022/10/08 11:43:20;;;;;;;1.42;0.70;;;17.30;57.50;;;;;;5114247;28;20020;-74
2022/10/08 11:45:48;;;;;;;3.47;0.70;;;17.50;57.80;;;;;;5114206;28;20032;-74
2022/10/08 11:48:32;;;;;;;3.60;0.60;;;17.60;57.70;;;;;;5114097;28;20028;-75
2022/10/08 11:51:17;;;;;;;3.63;0.68;;;17.90;55.90;;;;;;5114127;28;20024;-74
2022/10/08 11:54:06;;;;;;;1.15;0.40;;;18.10;54.00;;;;;;5114045;28;20042;-75
2022/10/08 11:56:35;;;;;;;1.67;0.47;;;18.20;53.50;;;;;;5114014;28;20081;-74
2022/10/08 11:59:27;;;;;;;2.28;0.52;;;18.30;52.30;;;;;;5113878;28;20043;-75
2022/10/08 12:02:02;;;;;;;1.70;0.45;;;18.50;52.10;;;;;;5113362;28;20060;-74
2022/10/08 12:04:30;;;;;;;2.75;0.80;;;18.50;51.10;;;;;;5113816;28;20062;-74
2022/10/08 12:07:23;;;;;;;2.28;0.70;;;18.40;51.70;;;;;;5113862;28;20028;-74
2022/10/08 12:10:04;;;;;;;;;;;18.30;52.20;;;;;;5107723;28;20036;-74
2022/10/08 12:12:47;;;;;;;4.15;1.08;;;18.20;53.30;;;;;;5113852;28;20367;-74
2022/10/08 12:15:22;;;;;;;2.85;0.90;;;18.00;53.60;;;;;;5113703;28;20031;-74
2022/10/08 12:17:53;;;;;;;1.40;0.50;;;17.80;54.60;;;;;;5113665;28;20028;-74
2022/10/08 12:20:23;;;;;;;3.90;0.82;;;17.80;54.60;;;;;;5113632;28;20053;-74
2022/10/08 12:23:05;;;;;;;3.25;0.73;;;17.80;54.80;;;;;;5113754;28;20031;-74
2022/10/08 12:25:43;;;;;;;3.45;0.75;;;18.00;55.10;;;;;;5113762;28;20069;-74
2022/10/08 12:28:20;;;;;;;2.40;0.60;;;18.20;54.50;;;;;;5113541;28;20379;-74
2022/10/08 12:30:50;;;;;;;1.85;0.52;;;18.30;54.20;;;;;;5113428;28;20024;-75
2022/10/08 12:33:17;;;;;;;2.15;0.80;;;18.50;53.20;;;;;;5113493;28;20466;-74
2022/10/08 12:36:20;;;;;;;3.00;0.65;;;18.60;51.30;;;;;;5113502;28;20025;-74
2022/10/08 12:39:11;;;;;;;3.63;0.88;;;18.60;50.10;;;;;;5113500;28;20114;-74
2022/10/08 12:42:02;;;;;;;2.20;0.55;;;18.80;52.00;;;;;;5113529;28;20028;-74
2022/10/08 12:44:55;;;;;;;2.78;0.50;;;18.90;49.40;;;;;;5113485;28;20016;-75
2022/10/08 12:47:38;;;;;;;;;;;19.00;50.10;;;;;;5113847;28;20028;-75
2022/10/08 12:50:14;;;;;;;3.25;0.70;;;19.10;48.90;;;;;;5117266;28;19907;-75
2022/10/08 12:52:40;;;;;;;2.92;0.50;;;19.00;48.80;;;;;;5117376;28;20107;-75
2022/10/08 12:55:17;;;;;;;3.88;0.68;;;18.90;49.50;;;;;;5117390;28;20062;-75
2022/10/08 12:57:43;;;;;;;2.92;0.38;;;18.80;48.70;;;;;;5117553;28;20032;-75
2022/10/08 13:00:24;;;;;;;4.50;0.50;;;18.80;49.00;;;;;;5117341;28;20028;-74
2022/10/08 13:03:13;;;;;;;2.35;0.50;;;18.80;47.60;;;;;;5117372;28;20038;-75
2022/10/08 13:05:42;;;;;;;5.10;0.50;;;18.90;47.70;;;;;;5117262;28;20036;-74
2022/10/08 13:08:33;;;;;;;1.90;0.63;;;18.90;48.50;;;;;;5117207;28;20020;-74